createdAt,value
2019-02-23T00:00:16.217Z,-7.75
2019-02-23T00:02:46.502Z,-7.84
2019-02-23T00:05:16.749Z,-7.66
2019-02-23T00:07:47.039Z,-7.76
2019-02-23T00:10:18.158Z,-7.73
2019-02-23T00:12:48.550Z,-7.76
2019-02-23T00:15:18.790Z,-7.79
2019-02-23T00:17:49.104Z,-7.76
2019-02-23T00:20:19.362Z,-7.78
2019-02-23T00:22:49.666Z,-7.81
2019-02-23T00:25:19.920Z,-7.85
2019-02-23T00:27:50.229Z,-7.99
2019-02-23T00:30:20.509Z,-7.97
2019-02-23T00:32:50.804Z,-8.01
2019-02-23T00:35:21.080Z,-7.99
2019-02-23T00:37:51.370Z,-7.96
2019-02-23T00:40:21.639Z,-8.08
2019-02-23T00:42:51.940Z,-8.08
2019-02-23T00:45:22.193Z,-7.91
2019-02-23T06:31:28.196Z,-5.74
2019-02-23T06:34:33.730Z,-5.66
2019-02-23T06:37:04.039Z,-5.57
2019-02-23T06:53:12.471Z,-5.28
2019-02-23T06:55:42.917Z,-5.64
2019-02-23T06:58:13.019Z,-5.59
2019-02-23T07:00:43.230Z,-5.75
2019-02-23T07:03:13.418Z,-5.52
2019-02-23T07:05:43.683Z,-5.58
2019-02-23T07:08:15.073Z,-5.49
2019-02-23T07:10:45.302Z,-5.33
2019-02-23T07:13:15.541Z,-5.36
2019-02-23T07:15:46.070Z,-5.34
2019-02-23T07:18:16.281Z,-5.47
2019-02-23T07:20:46.526Z,-5.16
2019-02-23T07:23:16.649Z,-5.40
2019-02-23T07:25:46.906Z,-5.37
2019-02-23T07:28:23.006Z,-5.29
2019-02-23T07:30:53.305Z,-5.07
2019-02-23T07:33:32.324Z,-5.12
2019-02-23T07:35:58.977Z,-4.88
2019-02-23T07:38:29.089Z,-5.05
2019-02-23T07:40:59.246Z,-5.10
2019-02-23T07:43:29.559Z,-4.90
2019-02-23T07:45:59.850Z,-4.76
2019-02-23T07:48:30.033Z,-4.77
2019-02-23T07:51:00.295Z,-4.44
2019-02-23T07:53:30.628Z,-4.37
2019-02-23T07:56:01.190Z,-4.36
2019-02-23T07:58:31.645Z,-4.22
2019-02-23T08:01:02.179Z,-4.32
2019-02-23T08:03:32.636Z,-4.62
2019-02-23T08:06:02.931Z,-4.78
2019-02-23T08:08:33.115Z,-4.79
2019-02-23T08:11:03.391Z,-4.63
2019-02-23T08:13:33.596Z,-4.52
2019-02-23T08:16:03.832Z,-4.24
2019-02-23T08:18:34.022Z,-4.08
2019-02-23T08:21:04.301Z,-4.29
2019-02-23T08:23:34.415Z,-4.38
2019-02-23T08:26:04.666Z,-4.52
2019-02-23T08:28:34.878Z,-4.63
2019-02-23T08:31:05.123Z,-4.25
2019-02-23T08:33:35.310Z,-4.19
2019-02-23T08:36:06.503Z,-4.19
2019-02-23T08:38:36.678Z,-4.23
2019-02-23T08:41:06.918Z,-3.91
2019-02-23T08:43:37.242Z,-3.96
2019-02-23T08:46:07.462Z,-3.89
2019-02-23T08:48:37.648Z,-3.91
2019-02-23T08:51:07.818Z,-3.89
2019-02-23T08:53:38.010Z,-4.09
2019-02-23T08:56:08.221Z,-3.90
2019-02-23T08:58:38.352Z,-3.90
2019-02-23T09:01:08.592Z,-3.79
2019-02-23T09:03:38.768Z,-3.94
2019-02-23T09:06:08.919Z,-3.95
2019-02-23T09:08:39.128Z,-4.05
2019-02-23T09:11:09.373Z,-4.16
2019-02-23T09:13:39.475Z,-4.19
2019-02-23T09:16:09.714Z,-4.27
2019-02-23T09:18:39.898Z,-4.17
2019-02-23T09:21:10.127Z,-4.04
2019-02-23T09:23:40.318Z,-4.03
2019-02-23T09:26:10.553Z,-3.88
2019-02-23T09:28:40.758Z,-3.89
2019-02-23T09:31:10.854Z,-3.92
2019-02-23T09:33:40.896Z,-3.69
2019-02-23T09:36:12.056Z,-3.55
2019-02-23T09:38:42.165Z,-3.34
2019-02-23T09:41:12.377Z,-3.28
2019-02-23T09:43:42.489Z,-3.19
2019-02-23T09:46:12.721Z,-3.03
2019-02-23T09:48:42.925Z,-3.16
2019-02-23T09:51:13.163Z,-3.58
2019-02-23T09:53:43.348Z,-3.66
2019-02-23T09:56:13.611Z,-3.70
2019-02-23T09:58:43.789Z,-3.78
2019-02-23T10:01:14.034Z,-3.74
2019-02-23T10:03:44.240Z,-3.48
2019-02-23T10:06:14.486Z,-3.39
2019-02-23T10:08:44.701Z,-3.43
2019-02-23T10:11:14.949Z,-3.35
2019-02-23T10:13:45.134Z,-3.40
2019-02-23T10:16:15.384Z,-3.16
2019-02-23T10:18:45.586Z,-3.27
2019-02-23T10:21:15.841Z,-3.25
2019-02-23T10:23:46.053Z,-3.21
2019-02-23T10:26:16.287Z,-3.09
2019-02-23T10:28:46.494Z,-3.24
2019-02-23T10:31:16.740Z,-3.35
2019-02-23T10:33:47.552Z,-3.24
2019-02-23T10:36:19.112Z,-3.39
2019-02-23T10:38:49.296Z,-3.50
2019-02-23T10:41:19.539Z,-3.23
2019-02-23T10:43:49.743Z,-3.11
2019-02-23T10:46:19.926Z,-3.08
2019-02-23T10:48:50.143Z,-3.24
2019-02-23T10:51:20.382Z,-3.29
2019-02-23T10:53:50.586Z,-3.24
2019-02-23T10:56:20.739Z,-2.94
2019-02-23T10:58:50.865Z,-3.15
2019-02-23T11:01:20.987Z,-3.13
2019-02-23T11:03:51.108Z,-3.36
2019-02-23T11:06:21.313Z,-3.38
2019-02-23T11:08:51.511Z,-3.24
2019-02-23T11:11:21.674Z,-3.41
2019-02-23T11:13:51.723Z,-3.32
2019-02-23T11:16:21.905Z,-3.08
2019-02-23T11:18:52.029Z,-3.13
2019-02-23T11:21:22.248Z,-3.16
2019-02-23T11:23:52.386Z,-3.26
2019-02-23T11:26:22.542Z,-3.34
2019-02-23T11:28:52.664Z,-3.26
2019-02-23T11:31:22.883Z,-3.16
2019-02-23T11:33:53.095Z,-3.46
2019-02-23T11:36:24.262Z,-3.19
2019-02-23T11:38:54.445Z,-3.16
2019-02-23T11:41:24.619Z,-3.19
2019-02-23T11:43:54.652Z,-3.21
2019-02-23T11:46:24.763Z,-3.18
2019-02-23T11:48:54.888Z,-3.00
2019-02-23T11:51:25.031Z,-3.06
2019-02-23T11:53:55.492Z,-2.79
2019-02-23T11:56:25.914Z,-3.07
2019-02-23T11:58:56.069Z,-2.93
2019-02-23T12:01:26.322Z,-2.95
2019-02-23T12:03:56.534Z,-2.89
2019-02-23T12:06:26.795Z,-2.85
2019-02-23T12:08:57.449Z,-2.95
2019-02-23T12:11:27.667Z,-2.91
2019-02-23T12:13:57.888Z,-2.79
2019-02-23T12:16:28.121Z,-2.93
2019-02-23T12:18:58.331Z,-3.02
2019-02-23T12:21:28.563Z,-2.88
2019-02-23T12:24:05.996Z,-3.01
2019-02-23T12:26:30.741Z,-2.75
2019-02-23T12:29:00.912Z,-2.77
2019-02-23T12:31:31.162Z,-2.86
2019-02-23T12:34:01.351Z,-3.04
2019-02-23T12:36:32.562Z,-3.11
2019-02-23T12:39:02.770Z,-3.00
2019-02-23T12:41:33.030Z,-2.83
2019-02-23T12:44:03.222Z,-2.94
2019-02-23T12:46:33.469Z,-2.93
2019-02-23T12:49:03.646Z,-2.99
2019-02-23T12:51:33.910Z,-3.00
2019-02-23T12:54:04.109Z,-3.07
2019-02-23T12:56:34.347Z,-3.26
2019-02-23T12:59:04.554Z,-3.48
2019-02-23T13:01:34.804Z,-3.26
2019-02-23T13:04:04.998Z,-3.11
2019-02-23T13:06:35.246Z,-3.10
2019-02-23T13:09:24.773Z,-3.18
2019-02-23T13:12:13.151Z,-3.15
2019-02-23T13:14:52.311Z,-3.26
2019-02-23T13:17:43.412Z,-3.04
2019-02-23T13:20:34.819Z,-3.05
2019-02-23T13:23:17.308Z,-3.02
2019-02-23T13:25:50.607Z,-3.12
2019-02-23T13:28:26.924Z,-3.34
2019-02-23T13:31:18.273Z,-3.17
2019-02-23T13:34:00.032Z,-3.19
2019-02-23T13:36:48.652Z,-3.28
2019-02-23T13:39:37.058Z,-3.47
2019-02-23T13:42:22.322Z,-3.50
2019-02-23T13:45:10.347Z,-3.29
2019-02-23T13:47:58.582Z,-3.42
2019-02-23T13:50:48.170Z,-3.59
2019-02-23T13:53:21.481Z,-3.57
2019-02-23T13:56:06.768Z,-3.61
2019-02-23T13:58:54.713Z,-3.64
2019-02-23T14:01:31.578Z,-3.52
2019-02-23T14:04:13.487Z,-3.74
2019-02-23T14:06:58.660Z,-3.90
2019-02-23T14:09:40.740Z,-3.83
2019-02-23T14:12:14.126Z,-3.81
2019-02-23T14:14:47.424Z,-3.88
2019-02-23T14:17:32.659Z,-3.78
2019-02-23T14:20:38.609Z,-3.81
2019-02-23T14:23:29.867Z,-3.94
2019-02-23T14:26:18.051Z,-3.89
2019-02-23T14:29:09.761Z,-3.96
2019-02-23T14:31:58.004Z,-4.15
2019-02-23T14:34:55.528Z,-4.08
2019-02-23T14:37:47.425Z,-3.93
2019-02-23T14:40:41.779Z,-4.01
2019-02-23T14:43:17.797Z,-4.07
2019-02-23T14:46:10.096Z,-4.04
2019-02-23T14:48:52.276Z,-4.01
2019-02-23T14:51:48.258Z,-4.19
2019-02-23T14:54:33.206Z,-4.28
2019-02-23T14:57:12.014Z,-4.09
2019-02-23T15:00:00.243Z,-4.07
2019-02-23T15:02:39.677Z,-4.25
2019-02-23T15:05:18.814Z,-4.15
2019-02-23T15:08:18.928Z,-4.19
2019-02-23T15:11:12.909Z,-4.02
2019-02-23T15:14:01.012Z,-4.16
2019-02-23T15:17:04.260Z,-4.17
2019-02-23T15:19:55.269Z,-4.34
2019-02-23T15:22:59.931Z,-4.22
2019-02-23T15:25:53.659Z,-4.33
2019-02-23T15:28:38.156Z,-4.48
2019-02-23T15:31:13.292Z,-4.42
2019-02-23T15:33:58.715Z,-4.44
2019-02-23T15:36:34.638Z,-4.37
2019-02-23T15:39:41.523Z,-4.49
2019-02-23T15:42:23.763Z,-4.46
2019-02-23T15:45:15.052Z,-4.47
2019-02-23T15:48:07.532Z,-4.50
2019-02-23T15:50:37.718Z,-4.57
2019-02-23T15:53:08.044Z,-4.54
2019-02-23T15:55:39.204Z,-4.49
2019-02-23T15:58:09.491Z,-4.58
2019-02-23T16:00:39.712Z,-4.64
2019-02-23T16:03:09.951Z,-4.72
2019-02-23T16:05:40.000Z,-4.57
2019-02-23T16:08:10.237Z,-4.56
2019-02-23T16:10:40.353Z,-4.47
2019-02-23T16:13:10.422Z,-4.37
2019-02-23T16:15:40.533Z,-4.39
2019-02-23T16:18:10.779Z,-4.64
2019-02-23T16:20:40.897Z,-4.65
2019-02-23T16:23:11.115Z,-4.61
2019-02-23T16:25:41.303Z,-4.46
2019-02-23T16:28:11.543Z,-4.47
2019-02-23T16:30:41.694Z,-4.40
2019-02-23T16:33:11.929Z,-4.44
2019-02-23T16:35:42.109Z,-4.49
2019-02-23T16:38:12.353Z,-4.57
2019-02-23T16:40:44.215Z,-4.59
2019-02-23T16:43:14.555Z,-4.67
2019-02-23T16:45:44.819Z,-4.59
2019-02-23T16:48:15.082Z,-4.58
2019-02-23T16:50:45.275Z,-4.74
2019-02-23T16:53:15.520Z,-4.68
2019-02-23T16:55:51.019Z,-4.71
2019-02-23T16:58:17.673Z,-4.75
2019-02-23T17:00:47.872Z,-4.81
2019-02-23T17:03:18.129Z,-4.82
2019-02-23T17:05:48.239Z,-4.95
2019-02-23T17:08:18.489Z,-4.87
2019-02-23T17:10:48.726Z,-4.92
2019-02-23T17:13:18.948Z,-4.83
2019-02-23T17:15:49.133Z,-4.84
2019-02-23T17:18:19.386Z,-4.99
2019-02-23T17:20:49.572Z,-4.90
2019-02-23T17:23:19.833Z,-4.82
2019-02-23T17:25:50.029Z,-4.88
2019-02-23T17:28:20.318Z,-4.91
2019-02-23T17:30:50.517Z,-4.89
2019-02-23T17:33:20.772Z,-4.88
2019-02-23T17:35:50.963Z,-5.01
2019-02-23T17:38:21.217Z,-5.03
2019-02-23T17:40:52.295Z,-4.98
2019-02-23T17:43:22.632Z,-5.01
2019-02-23T17:45:52.771Z,-4.98
2019-02-23T17:48:23.009Z,-4.93
2019-02-23T17:50:53.137Z,-5.02
2019-02-23T17:53:23.241Z,-5.05
2019-02-23T17:55:53.361Z,-5.01
2019-02-23T17:58:23.534Z,-5.06
2019-02-23T18:00:53.681Z,-5.01
2019-02-23T18:03:23.836Z,-5.20
2019-02-23T18:05:54.051Z,-5.07
2019-02-23T18:08:24.231Z,-5.02
2019-02-23T18:10:54.363Z,-5.08
2019-02-23T18:13:24.627Z,-5.02
2019-02-23T18:15:54.754Z,-4.92
2019-02-23T18:18:24.930Z,-4.97
2019-02-23T18:20:55.137Z,-4.84
2019-02-23T18:23:25.353Z,-4.96
2019-02-23T18:25:55.540Z,-4.95
2019-02-23T18:28:25.778Z,-5.03
2019-02-23T18:30:55.976Z,-5.10
2019-02-23T18:33:26.213Z,-4.93
2019-02-23T18:35:56.266Z,-5.02
2019-02-23T18:38:26.466Z,-5.00
2019-02-23T18:40:57.630Z,-5.18
2019-02-23T18:43:27.911Z,-5.04
2019-02-23T18:45:58.129Z,-5.20
2019-02-23T18:48:28.394Z,-5.15
2019-02-23T18:50:58.612Z,-5.18
2019-02-23T18:53:28.863Z,-5.11
2019-02-23T18:55:59.093Z,-5.10
2019-02-23T18:58:29.284Z,-5.08
2019-02-23T19:00:59.473Z,-5.13
2019-02-23T19:03:29.723Z,-5.08
2019-02-23T19:05:59.938Z,-5.10
2019-02-23T19:08:30.160Z,-5.28
2019-02-23T19:11:00.356Z,-5.24
2019-02-23T19:13:30.671Z,-5.37
2019-02-23T19:16:00.908Z,-5.38
2019-02-23T19:18:31.180Z,-5.35
2019-02-23T19:21:01.385Z,-5.46
2019-02-23T19:23:31.645Z,-5.41
2019-02-23T19:26:01.846Z,-5.42
2019-02-23T19:28:32.157Z,-5.64
2019-02-23T19:31:02.431Z,-5.59
2019-02-23T19:33:32.681Z,-5.73
2019-02-23T19:36:02.895Z,-5.76
2019-02-23T19:38:33.199Z,-5.68
2019-02-23T19:41:05.075Z,-5.85
2019-02-23T19:43:35.496Z,-5.77
2019-02-23T19:46:05.672Z,-5.89
2019-02-23T19:48:35.847Z,-5.86
2019-02-23T19:51:08.132Z,-5.91
2019-02-23T19:53:38.744Z,-5.89
2019-02-23T19:56:08.870Z,-5.74
2019-02-23T19:58:39.069Z,-5.93
2019-02-23T20:01:09.185Z,-5.83
2019-02-23T20:03:39.678Z,-6.07
2019-02-23T20:06:09.985Z,-6.12
2019-02-23T20:08:40.225Z,-6.01
2019-02-23T20:11:10.430Z,-6.00
2019-02-23T20:13:40.751Z,-5.97
2019-02-23T20:16:11.045Z,-6.28
2019-02-23T20:18:41.445Z,-6.24
2019-02-23T20:21:11.613Z,-6.13
2019-02-23T20:23:41.815Z,-6.28
2019-02-23T20:26:11.990Z,-6.22
2019-02-23T20:28:42.087Z,-6.17
2019-02-23T20:31:12.209Z,-6.27
2019-02-23T20:33:42.417Z,-6.26
2019-02-23T20:36:12.532Z,-6.28
2019-02-23T20:38:42.701Z,-6.27
2019-02-23T20:41:13.800Z,-6.36
2019-02-23T20:43:44.195Z,-6.43
2019-02-23T20:46:14.293Z,-6.44
2019-02-23T20:48:44.622Z,-6.34
2019-02-23T20:51:14.874Z,-6.30
2019-02-23T20:53:45.127Z,-6.43
2019-02-23T20:56:15.425Z,-6.31
2019-02-23T20:58:45.708Z,-6.31
2019-02-23T21:01:15.893Z,-6.28
2019-02-23T21:03:46.530Z,-6.28
2019-02-23T21:06:16.861Z,-6.36
2019-02-23T21:08:47.210Z,-6.29
2019-02-23T21:11:17.341Z,-6.30
2019-02-23T21:13:47.586Z,-6.30
2019-02-23T21:16:17.787Z,-6.28
2019-02-23T21:18:48.011Z,-6.22
2019-02-23T21:21:18.125Z,-6.22
2019-02-23T21:23:48.401Z,-6.31
2019-02-23T21:26:18.603Z,-6.36
2019-02-23T21:28:48.859Z,-6.37
2019-02-23T21:31:19.056Z,-6.29
2019-02-23T21:33:49.279Z,-6.43
2019-02-23T21:36:19.468Z,-6.33
2019-02-23T21:38:49.656Z,-6.39
2019-02-23T21:41:20.745Z,-6.60
2019-02-23T21:43:51.159Z,-6.61
2019-02-23T21:46:21.354Z,-6.59
2019-02-23T21:48:51.592Z,-6.48
2019-02-23T21:51:21.790Z,-6.52
2019-02-23T21:53:51.931Z,-6.49
2019-02-23T21:56:22.136Z,-6.42
2019-02-23T21:58:52.342Z,-6.69
2019-02-23T22:01:22.581Z,-6.62
2019-02-23T22:03:52.683Z,-6.65
2019-02-23T22:06:22.794Z,-6.76
2019-02-23T22:08:52.956Z,-6.77
2019-02-23T22:11:23.094Z,-6.69
2019-02-23T22:13:53.250Z,-6.74
2019-02-23T22:16:23.445Z,-6.95
2019-02-23T22:18:53.545Z,-6.98
2019-02-23T22:21:23.677Z,-6.81
2019-02-23T22:23:53.844Z,-6.82
2019-02-23T22:26:23.969Z,-6.74
2019-02-23T22:28:54.077Z,-6.69
2019-02-23T22:31:24.216Z,-6.87
2019-02-23T22:33:54.451Z,-6.88
2019-02-23T22:36:24.602Z,-6.89
2019-02-23T22:38:54.773Z,-7.08
2019-02-23T22:41:25.833Z,-7.05
2019-02-23T22:43:56.106Z,-7.05
2019-02-23T22:46:26.216Z,-7.06
2019-02-23T22:48:56.406Z,-7.05
2019-02-23T22:51:26.610Z,-7.13
2019-02-23T22:53:56.759Z,-7.11
2019-02-23T22:56:26.950Z,-7.09
2019-02-23T22:58:57.184Z,-7.05
2019-02-23T23:01:27.383Z,-7.10
2019-02-23T23:03:57.641Z,-7.13
2019-02-23T23:06:27.837Z,-7.20
2019-02-23T23:08:58.085Z,-7.14
2019-02-23T23:11:28.283Z,-7.06
2019-02-23T23:13:58.474Z,-7.05
2019-02-23T23:16:28.661Z,-7.07
2019-02-23T23:18:58.884Z,-7.07
2019-02-23T23:24:25.397Z,-7.04
2019-02-23T23:26:55.615Z,-7.29
2019-02-23T23:29:25.794Z,-7.31
2019-02-23T23:31:56.000Z,-7.26
2019-02-23T23:34:26.234Z,-7.20
2019-02-23T23:36:56.450Z,-7.17
2019-02-23T23:39:26.697Z,-7.23
2019-02-23T23:41:57.780Z,-7.22
2019-02-23T23:44:28.111Z,-7.22
2019-02-23T23:46:58.318Z,-7.22
2019-02-23T23:49:28.494Z,-7.33
2019-02-23T23:51:58.611Z,-7.26
2019-02-23T23:54:28.764Z,-7.24
2019-02-23T23:56:58.980Z,-7.51
2019-02-23T23:59:29.221Z,-7.45
